TAF Text Data
IDs:
Format:
Raw Decoded Include METAR

Data at: 0239 UTC 29 Nov 2020

KAUG 282320Z 2900/2924 27003KT P6SM FEW050
  TEMPO 2900/2904 2SM BR SCT002